sensor_id;sensor_type;location;lat;lon;timestamp;temperature;humidity
58513;DHT22;44302;47.914;10.642;2022-10-16T06:22:03;13.10;99.90
58513;DHT22;44302;47.914;10.642;2022-10-16T06:24:29;13.20;99.90
58513;DHT22;44302;47.914;10.642;2022-10-16T06:29:21;13.20;99.90
58513;DHT22;44302;47.914;10.642;2022-10-16T06:31:47;13.20;99.90
58513;DHT22;44302;47.914;10.642;2022-10-16T07:03:46;13.80;99.90
58513;DHT22;44302;47.914;10.642;2022-10-16T07:06:15;13.80;99.90
58513;DHT22;44302;47.914;10.642;2022-10-16T07:08:42;13.80;99.90
58513;DHT22;44302;47.914;10.642;2022-10-16T07:11:12;13.90;99.90
58513;DHT22;44302;47.914;10.642;2022-10-16T07:13:39;14.00;99.90
58513;DHT22;44302;47.914;10.642;2022-10-16T07:16:20;14.10;99.90
58513;DHT22;44302;47.914;10.642;2022-10-16T07:18:46;14.20;99.90
58513;DHT22;44302;47.914;10.642;2022-10-16T07:21:16;14.20;99.90
58513;DHT22;44302;47.914;10.642;2022-10-16T07:23:42;14.20;99.90
58513;DHT22;44302;47.914;10.642;2022-10-16T07:26:08;14.30;99.90
58513;DHT22;44302;47.914;10.642;2022-10-16T07:28:35;14.30;99.90
58513;DHT22;44302;47.914;10.642;2022-10-16T07:31:07;14.40;99.90
58513;DHT22;44302;47.914;10.642;2022-10-16T07:33:34;14.40;99.90
58513;DHT22;44302;47.914;10.642;2022-10-16T07:36:00;14.50;99.90
58513;DHT22;44302;47.914;10.642;2022-10-16T07:38:26;14.50;99.90
58513;DHT22;44302;47.914;10.642;2022-10-16T07:41:00;14.60;99.90
58513;DHT22;44302;47.914;10.642;2022-10-16T07:43:27;14.70;99.90
58513;DHT22;44302;47.914;10.642;2022-10-16T07:45:53;14.70;99.90
58513;DHT22;44302;47.914;10.642;2022-10-16T07:48:19;14.70;99.90
58513;DHT22;44302;47.914;10.642;2022-10-16T07:50:45;14.70;99.90
58513;DHT22;44302;47.914;10.642;2022-10-16T07:53:11;14.80;99.90
58513;DHT22;44302;47.914;10.642;2022-10-16T07:55:37;14.80;99.90
58513;DHT22;44302;47.914;10.642;2022-10-16T07:58:04;14.90;99.90
58513;DHT22;44302;47.914;10.642;2022-10-16T08:00:30;14.90;99.90
58513;DHT22;44302;47.914;10.642;2022-10-16T08:02:59;14.90;99.90
58513;DHT22;44302;47.914;10.642;2022-10-16T08:05:28;14.90;99.90
58513;DHT22;44302;47.914;10.642;2022-10-16T08:07:54;14.90;99.90
58513;DHT22;44302;47.914;10.642;2022-10-16T08:10:22;14.90;99.90
58513;DHT22;44302;47.914;10.642;2022-10-16T08:12:48;14.90;99.90
58513;DHT22;44302;47.914;10.642;2022-10-16T08:15:14;15.00;99.90
58513;DHT22;44302;47.914;10.642;2022-10-16T08:17:40;15.50;99.90
58513;DHT22;44302;47.914;10.642;2022-10-16T08:20:06;15.50;99.90
58513;DHT22;44302;47.914;10.642;2022-10-16T08:22:32;15.80;99.90
58513;DHT22;44302;47.914;10.642;2022-10-16T08:24:57;15.90;99.90
58513;DHT22;44302;47.914;10.642;2022-10-16T08:27:23;16.70;99.90
58513;DHT22;44302;47.914;10.642;2022-10-16T08:29:49;16.70;99.90
58513;DHT22;44302;47.914;10.642;2022-10-16T08:32:15;17.60;99.90
58513;DHT22;44302;47.914;10.642;2022-10-16T08:34:41;18.30;99.90
58513;DHT22;44302;47.914;10.642;2022-10-16T08:37:06;18.90;99.90
58513;DHT22;44302;47.914;10.642;2022-10-16T08:39:36;19.50;99.90
58513;DHT22;44302;47.914;10.642;2022-10-16T08:47:53;20.40;99.90
58513;DHT22;44302;47.914;10.642;2022-10-16T08:50:26;20.30;99.90
58513;DHT22;44302;47.914;10.642;2022-10-16T08:52:54;20.00;99.90
58513;DHT22;44302;47.914;10.642;2022-10-16T08:55:48;20.20;99.90
58513;DHT22;44302;47.914;10.642;2022-10-16T08:58:17;20.10;99.90
58513;DHT22;44302;47.914;10.642;2022-10-16T09:00:55;20.60;99.90
58513;DHT22;44302;47.914;10.642;2022-10-16T09:14:58;21.70;99.90
58513;DHT22;44302;47.914;10.642;2022-10-16T09:20:24;20.70;99.90
58513;DHT22;44302;47.914;10.642;2022-10-16T09:25:30;19.80;99.90
58513;DHT22;44302;47.914;10.642;2022-10-16T09:27:56;19.70;99.90
58513;DHT22;44302;47.914;10.642;2022-10-16T09:30:22;19.70;99.90
58513;DHT22;44302;47.914;10.642;2022-10-16T09:32:52;19.60;99.90
58513;DHT22;44302;47.914;10.642;2022-10-16T09:35:26;19.50;99.90
58513;DHT22;44302;47.914;10.642;2022-10-16T09:37:54;19.40;99.90
58513;DHT22;44302;47.914;10.642;2022-10-16T09:40:32;19.40;99.90
58513;DHT22;44302;47.914;10.642;2022-10-16T09:43:23;19.30;99.90
58513;DHT22;44302;47.914;10.642;2022-10-16T09:45:59;19.30;99.90
58513;DHT22;44302;47.914;10.642;2022-10-16T09:48:33;19.30;99.90
58513;DHT22;44302;47.914;10.642;2022-10-16T09:51:02;19.40;99.90
58513;DHT22;44302;47.914;10.642;2022-10-16T09:53:45;19.50;99.90
58513;DHT22;44302;47.914;10.642;2022-10-16T09:56:21;19.70;99.90
58513;DHT22;44302;47.914;10.642;2022-10-16T09:58:56;19.70;99.90
58513;DHT22;44302;47.914;10.642;2022-10-16T10:01:45;19.80;99.90
58513;DHT22;44302;47.914;10.642;2022-10-16T10:04:10;19.80;99.90
58513;DHT22;44302;47.914;10.642;2022-10-16T10:09:26;20.60;99.90
58513;DHT22;44302;47.914;10.642;2022-10-16T10:14:31;21.00;99.90
58513;DHT22;44302;47.914;10.642;2022-10-16T10:17:22;21.30;99.90
58513;DHT22;44302;47.914;10.642;2022-10-16T10:19:55;22.20;99.90
58513;DHT22;44302;47.914;10.642;2022-10-16T10:30:38;25.90;99.90
58513;DHT22;44302;47.914;10.642;2022-10-16T10:46:56;25.00;99.90
58513;DHT22;44302;47.914;10.642;2022-10-16T10:49:47;25.20;99.90
58513;DHT22;44302;47.914;10.642;2022-10-16T10:52:37;25.90;99.90
58513;DHT22;44302;47.914;10.642;2022-10-16T10:55:20;26.90;99.90
58513;DHT22;44302;47.914;10.642;2022-10-16T11:06:20;28.10;99.90
58513;DHT22;44302;47.914;10.642;2022-10-16T11:09:02;28.30;94.20
58513;DHT22;44302;47.914;10.642;2022-10-16T11:11:44;28.20;95.70
58513;DHT22;44302;47.914;10.642;2022-10-16T11:14:23;28.30;96.50
58513;DHT22;44302;47.914;10.642;2022-10-16T11:17:05;28.40;94.80
58513;DHT22;44302;47.914;10.642;2022-10-16T11:19:49;28.30;91.10
58513;DHT22;44302;47.914;10.642;2022-10-16T11:22:23;28.20;91.10
58513;DHT22;44302;47.914;10.642;2022-10-16T11:25:12;28.20;90.10
58513;DHT22;44302;47.914;10.642;2022-10-16T11:27:43;28.30;90.50
58513;DHT22;44302;47.914;10.642;2022-10-16T11:30:26;28.70;90.10
58513;DHT22;44302;47.914;10.642;2022-10-16T11:38:41;28.90;85.20
58513;DHT22;44302;47.914;10.642;2022-10-16T11:46:32;29.80;83.50
58513;DHT22;44302;47.914;10.642;2022-10-16T11:49:13;30.30;82.30
58513;DHT22;44302;47.914;10.642;2022-10-16T11:57:41;30.30;77.00
58513;DHT22;44302;47.914;10.642;2022-10-16T12:00:27;29.90;71.40
58513;DHT22;44302;47.914;10.642;2022-10-16T12:08:34;29.90;70.30
58513;DHT22;44302;47.914;10.642;2022-10-16T12:14:03;30.10;80.40
58513;DHT22;44302;47.914;10.642;2022-10-16T12:16:29;30.40;74.20
58513;DHT22;44302;47.914;10.642;2022-10-16T12:19:13;30.20;72.20
58513;DHT22;44302;47.914;10.642;2022-10-16T12:21:39;30.60;69.50
58513;DHT22;44302;47.914;10.642;2022-10-16T12:24:05;30.50;72.10
58513;DHT22;44302;47.914;10.642;2022-10-16T12:26:34;30.60;70.80
58513;DHT22;44302;47.914;10.642;2022-10-16T12:29:18;30.90;71.10
58513;DHT22;44302;47.914;10.642;2022-10-16T12:31:47;30.90;71.70
58513;DHT22;44302;47.914;10.642;2022-10-16T12:36:54;31.00;72.60
58513;DHT22;44302;47.914;10.642;2022-10-16T12:39:22;31.20;71.90
58513;DHT22;44302;47.914;10.642;2022-10-16T12:42:02;31.50;70.80
58513;DHT22;44302;47.914;10.642;2022-10-16T12:44:33;31.20;68.00
58513;DHT22;44302;47.914;10.642;2022-10-16T12:47:00;31.10;64.80
58513;DHT22;44302;47.914;10.642;2022-10-16T12:49:34;31.40;66.10
58513;DHT22;44302;47.914;10.642;2022-10-16T12:52:01;31.20;68.10
58513;DHT22;44302;47.914;10.642;2022-10-16T12:54:40;30.80;70.10
58513;DHT22;44302;47.914;10.642;2022-10-16T13:00:13;31.30;70.00
58513;DHT22;44302;47.914;10.642;2022-10-16T13:05:40;31.80;69.80
58513;DHT22;44302;47.914;10.642;2022-10-16T13:22:39;31.10;65.30
58513;DHT22;44302;47.914;10.642;2022-10-16T13:25:19;30.40;69.40
58513;DHT22;44302;47.914;10.642;2022-10-16T13:30:27;30.40;69.80
58513;DHT22;44302;47.914;10.642;2022-10-16T13:33:04;30.60;72.30
58513;DHT22;44302;47.914;10.642;2022-10-16T13:35:33;30.90;69.20
58513;DHT22;44302;47.914;10.642;2022-10-16T13:38:20;31.60;66.50
58513;DHT22;44302;47.914;10.642;2022-10-16T13:41:02;31.70;67.60
58513;DHT22;44302;47.914;10.642;2022-10-16T13:43:32;31.90;64.20
58513;DHT22;44302;47.914;10.642;2022-10-16T13:46:03;31.10;65.30
58513;DHT22;44302;47.914;10.642;2022-10-16T13:48:31;30.10;67.20
58513;DHT22;44302;47.914;10.642;2022-10-16T13:51:16;29.00;67.90
58513;DHT22;44302;47.914;10.642;2022-10-16T13:53:42;27.50;74.80
58513;DHT22;44302;47.914;10.642;2022-10-16T13:56:16;26.50;77.70
58513;DHT22;44302;47.914;10.642;2022-10-16T13:58:43;25.60;77.30
58513;DHT22;44302;47.914;10.642;2022-10-16T14:01:41;25.10;80.60
58513;DHT22;44302;47.914;10.642;2022-10-16T14:04:11;24.60;80.00
58513;DHT22;44302;47.914;10.642;2022-10-16T14:06:44;24.30;79.40
58513;DHT22;44302;47.914;10.642;2022-10-16T14:09:25;24.10;84.80
58513;DHT22;44302;47.914;10.642;2022-10-16T14:14:20;23.70;84.80
58513;DHT22;44302;47.914;10.642;2022-10-16T14:16:47;23.50;84.80
58513;DHT22;44302;47.914;10.642;2022-10-16T14:21:43;23.30;87.40
58513;DHT22;44302;47.914;10.642;2022-10-16T14:24:19;23.20;86.00
58513;DHT22;44302;47.914;10.642;2022-10-16T14:26:47;23.10;87.80
58513;DHT22;44302;47.914;10.642;2022-10-16T14:29:18;23.00;90.30
58513;DHT22;44302;47.914;10.642;2022-10-16T14:31:55;23.00;90.50
58513;DHT22;44302;47.914;10.642;2022-10-16T14:34:39;23.00;92.10
58513;DHT22;44302;47.914;10.642;2022-10-16T14:37:16;22.90;90.70
58513;DHT22;44302;47.914;10.642;2022-10-16T14:39:51;22.90;92.70
58513;DHT22;44302;47.914;10.642;2022-10-16T14:42:19;22.80;91.30
58513;DHT22;44302;47.914;10.642;2022-10-16T14:44:46;22.70;90.80
58513;DHT22;44302;47.914;10.642;2022-10-16T14:47:18;22.60;91.40
58513;DHT22;44302;47.914;10.642;2022-10-16T14:49:47;22.50;92.40
58513;DHT22;44302;47.914;10.642;2022-10-16T14:52:14;22.40;93.30
58513;DHT22;44302;47.914;10.642;2022-10-16T14:54:40;22.30;92.00
58513;DHT22;44302;47.914;10.642;2022-10-16T14:57:18;22.30;96.10
58513;DHT22;44302;47.914;10.642;2022-10-16T14:59:44;22.20;95.80
58513;DHT22;44302;47.914;10.642;2022-10-16T15:02:34;22.10;98.30
58513;DHT22;44302;47.914;10.642;2022-10-16T15:05:23;22.00;99.90
58513;DHT22;44302;47.914;10.642;2022-10-16T15:07:50;21.90;99.90
58513;DHT22;44302;47.914;10.642;2022-10-16T15:10:17;21.80;99.90
58513;DHT22;44302;47.914;10.642;2022-10-16T15:12:43;21.60;99.90
58513;DHT22;44302;47.914;10.642;2022-10-16T15:15:42;21.60;99.90
58513;DHT22;44302;47.914;10.642;2022-10-16T15:18:08;21.40;99.90
58513;DHT22;44302;47.914;10.642;2022-10-16T15:20:35;21.30;99.90
58513;DHT22;44302;47.914;10.642;2022-10-16T15:23:10;21.20;99.90
58513;DHT22;44302;47.914;10.642;2022-10-16T15:25:43;21.10;99.90
58513;DHT22;44302;47.914;10.642;2022-10-16T15:28:09;21.00;99.90
58513;DHT22;44302;47.914;10.642;2022-10-16T15:30:36;20.80;99.90
58513;DHT22;44302;47.914;10.642;2022-10-16T15:33:03;20.70;99.90
58513;DHT22;44302;47.914;10.642;2022-10-16T15:35:29;20.60;99.90
58513;DHT22;44302;47.914;10.642;2022-10-16T15:37:56;20.40;99.90
58513;DHT22;44302;47.914;10.642;2022-10-16T15:40:22;20.30;99.90
58513;DHT22;44302;47.914;10.642;2022-10-16T15:42:48;20.20;99.90
58513;DHT22;44302;47.914;10.642;2022-10-16T15:45:14;20.10;99.90
58513;DHT22;44302;47.914;10.642;2022-10-16T15:47:41;20.00;99.90
58513;DHT22;44302;47.914;10.642;2022-10-16T15:50:10;19.90;99.90
58513;DHT22;44302;47.914;10.642;2022-10-16T15:52:37;19.80;99.90
58513;DHT22;44302;47.914;10.642;2022-10-16T15:55:10;19.70;99.90
58513;DHT22;44302;47.914;10.642;2022-10-16T15:57:38;19.60;99.90
58513;DHT22;44302;47.914;10.642;2022-10-16T16:00:07;19.50;99.90
58513;DHT22;44302;47.914;10.642;2022-10-16T16:02:33;19.40;99.90
58513;DHT22;44302;47.914;10.642;2022-10-16T16:04:59;19.30;99.90
58513;DHT22;44302;47.914;10.642;2022-10-16T16:07:24;19.10;99.90
58513;DHT22;44302;47.914;10.642;2022-10-16T16:09:50;19.00;99.90
58513;DHT22;44302;47.914;10.642;2022-10-16T16:12:16;18.90;99.90
58513;DHT22;44302;47.914;10.642;2022-10-16T16:14:41;18.80;99.90
58513;DHT22;44302;47.914;10.642;2022-10-16T16:17:08;18.70;99.90
58513;DHT22;44302;47.914;10.642;2022-10-16T16:19:33;18.60;99.90
58513;DHT22;44302;47.914;10.642;2022-10-16T16:21:59;18.40;99.90
58513;DHT22;44302;47.914;10.642;2022-10-16T16:24:24;18.30;99.90
58513;DHT22;44302;47.914;10.642;2022-10-16T16:26:50;18.20;99.90
58513;DHT22;44302;47.914;10.642;2022-10-16T16:29:16;18.10;99.90
58513;DHT22;44302;47.914;10.642;2022-10-16T16:31:42;18.10;99.90
58513;DHT22;44302;47.914;10.642;2022-10-16T16:34:09;18.00;99.90
58513;DHT22;44302;47.914;10.642;2022-10-16T16:36:35;17.90;99.90
58513;DHT22;44302;47.914;10.642;2022-10-16T16:39:01;17.80;99.90
58513;DHT22;44302;47.914;10.642;2022-10-16T16:41:28;17.70;99.90
58513;DHT22;44302;47.914;10.642;2022-10-16T16:44:04;17.60;99.90
58513;DHT22;44302;47.914;10.642;2022-10-16T16:46:31;17.50;99.90
58513;DHT22;44302;47.914;10.642;2022-10-16T16:48:58;17.50;99.90
58513;DHT22;44302;47.914;10.642;2022-10-16T16:51:24;17.40;99.90
58513;DHT22;44302;47.914;10.642;2022-10-16T16:53:52;17.30;99.90
58513;DHT22;44302;47.914;10.642;2022-10-16T16:56:18;17.20;99.90
58513;DHT22;44302;47.914;10.642;2022-10-16T16:58:52;17.10;99.90
58513;DHT22;44302;47.914;10.642;2022-10-16T17:01:19;17.00;99.90
58513;DHT22;44302;47.914;10.642;2022-10-16T17:03:45;16.90;99.90
58513;DHT22;44302;47.914;10.642;2022-10-16T17:06:12;16.80;99.90
58513;DHT22;44302;47.914;10.642;2022-10-16T17:08:38;16.70;99.90
58513;DHT22;44302;47.914;10.642;2022-10-16T17:11:05;16.70;99.90
58513;DHT22;44302;47.914;10.642;2022-10-16T17:13:33;16.70;99.90
58513;DHT22;44302;47.914;10.642;2022-10-16T17:16:04;16.70;99.90
58513;DHT22;44302;47.914;10.642;2022-10-16T17:18:30;16.60;99.90
58513;DHT22;44302;47.914;10.642;2022-10-16T17:21:01;16.50;99.90
58513;DHT22;44302;47.914;10.642;2022-10-16T17:23:26;16.50;99.90
58513;DHT22;44302;47.914;10.642;2022-10-16T17:25:53;16.40;99.90
58513;DHT22;44302;47.914;10.642;2022-10-16T17:28:19;16.40;99.90
58513;DHT22;44302;47.914;10.642;2022-10-16T17:30:44;16.30;99.90
58513;DHT22;44302;47.914;10.642;2022-10-16T17:33:11;16.20;99.90
58513;DHT22;44302;47.914;10.642;2022-10-16T17:35:39;16.20;99.90
58513;DHT22;44302;47.914;10.642;2022-10-16T17:38:05;16.10;99.90
58513;DHT22;44302;47.914;10.642;2022-10-16T17:40:32;16.00;99.90
58513;DHT22;44302;47.914;10.642;2022-10-16T17:42:57;16.00;99.90
58513;DHT22;44302;47.914;10.642;2022-10-16T17:45:23;15.90;99.90
58513;DHT22;44302;47.914;10.642;2022-10-16T17:47:49;15.80;99.90
58513;DHT22;44302;47.914;10.642;2022-10-16T17:50:15;15.80;99.90
58513;DHT22;44302;47.914;10.642;2022-10-16T17:52:40;15.70;99.90
58513;DHT22;44302;47.914;10.642;2022-10-16T17:55:07;15.70;99.90
58513;DHT22;44302;47.914;10.642;2022-10-16T17:57:32;15.60;99.90
58513;DHT22;44302;47.914;10.642;2022-10-16T17:59:58;15.50;99.90
58513;DHT22;44302;47.914;10.642;2022-10-16T18:02:27;15.50;99.90
58513;DHT22;44302;47.914;10.642;2022-10-16T18:04:53;15.40;99.90
58513;DHT22;44302;47.914;10.642;2022-10-16T18:07:20;15.40;99.90
58513;DHT22;44302;47.914;10.642;2022-10-16T18:09:46;15.30;99.90
58513;DHT22;44302;47.914;10.642;2022-10-16T18:12:12;15.30;99.90
58513;DHT22;44302;47.914;10.642;2022-10-16T18:14:38;15.30;99.90
58513;DHT22;44302;47.914;10.642;2022-10-16T18:17:04;15.30;99.90
58513;DHT22;44302;47.914;10.642;2022-10-16T18:19:30;15.30;99.90
58513;DHT22;44302;47.914;10.642;2022-10-16T18:21:56;15.30;99.90
58513;DHT22;44302;47.914;10.642;2022-10-16T18:24:22;15.30;99.90
58513;DHT22;44302;47.914;10.642;2022-10-16T18:26:50;15.40;99.90
58513;DHT22;44302;47.914;10.642;2022-10-16T18:29:18;15.50;99.90
58513;DHT22;44302;47.914;10.642;2022-10-16T18:31:43;15.50;99.90
58513;DHT22;44302;47.914;10.642;2022-10-16T18:34:09;15.50;99.90
58513;DHT22;44302;47.914;10.642;2022-10-16T18:36:35;15.50;99.90
58513;DHT22;44302;47.914;10.642;2022-10-16T18:39:05;15.50;99.90
58513;DHT22;44302;47.914;10.642;2022-10-16T18:41:38;15.50;99.90
58513;DHT22;44302;47.914;10.642;2022-10-16T18:44:05;15.40;99.90
58513;DHT22;44302;47.914;10.642;2022-10-16T18:46:31;15.40;99.90
58513;DHT22;44302;47.914;10.642;2022-10-16T18:48:57;15.30;99.90
58513;DHT22;44302;47.914;10.642;2022-10-16T18:51:24;15.30;99.90
58513;DHT22;44302;47.914;10.642;2022-10-16T18:53:53;15.20;99.90
58513;DHT22;44302;47.914;10.642;2022-10-16T18:56:20;15.20;99.90
58513;DHT22;44302;47.914;10.642;2022-10-16T18:58:47;15.10;99.90
58513;DHT22;44302;47.914;10.642;2022-10-16T19:01:16;15.00;99.90
58513;DHT22;44302;47.914;10.642;2022-10-16T19:03:45;14.90;99.90
58513;DHT22;44302;47.914;10.642;2022-10-16T19:06:13;14.90;99.90
58513;DHT22;44302;47.914;10.642;2022-10-16T19:08:39;14.80;99.90
58513;DHT22;44302;47.914;10.642;2022-10-16T19:11:14;14.70;99.90
58513;DHT22;44302;47.914;10.642;2022-10-16T19:13:41;14.60;99.90
58513;DHT22;44302;47.914;10.642;2022-10-16T19:16:18;14.60;99.90
58513;DHT22;44302;47.914;10.642;2022-10-16T19:18:44;14.60;99.90
58513;DHT22;44302;47.914;10.642;2022-10-16T19:21:12;14.60;99.90
58513;DHT22;44302;47.914;10.642;2022-10-16T19:23:38;14.60;99.90
58513;DHT22;44302;47.914;10.642;2022-10-16T19:26:12;14.60;99.90
58513;DHT22;44302;47.914;10.642;2022-10-16T19:28:39;14.60;99.90
58513;DHT22;44302;47.914;10.642;2022-10-16T19:31:07;14.60;99.90
58513;DHT22;44302;47.914;10.642;2022-10-16T19:33:33;14.60;99.90
58513;DHT22;44302;47.914;10.642;2022-10-16T19:36:26;14.60;99.90
58513;DHT22;44302;47.914;10.642;2022-10-16T19:38:54;14.60;99.90
58513;DHT22;44302;47.914;10.642;2022-10-16T19:41:21;14.60;99.90
58513;DHT22;44302;47.914;10.642;2022-10-16T19:43:48;14.50;99.90
58513;DHT22;44302;47.914;10.642;2022-10-16T19:46:24;14.50;99.90
58513;DHT22;44302;47.914;10.642;2022-10-16T19:48:57;14.40;99.90
58513;DHT22;44302;47.914;10.642;2022-10-16T19:51:25;14.40;99.90
58513;DHT22;44302;47.914;10.642;2022-10-16T19:54:00;14.30;99.90
58513;DHT22;44302;47.914;10.642;2022-10-16T19:56:27;14.30;99.90
58513;DHT22;44302;47.914;10.642;2022-10-16T19:58:55;14.30;99.90
58513;DHT22;44302;47.914;10.642;2022-10-16T20:01:22;14.20;99.90
58513;DHT22;44302;47.914;10.642;2022-10-16T20:03:48;14.20;99.90
58513;DHT22;44302;47.914;10.642;2022-10-16T20:06:15;14.20;99.90
58513;DHT22;44302;47.914;10.642;2022-10-16T20:08:43;14.20;99.90
58513;DHT22;44302;47.914;10.642;2022-10-16T20:11:15;14.30;99.90
58513;DHT22;44302;47.914;10.642;2022-10-16T20:13:42;14.30;99.90
58513;DHT22;44302;47.914;10.642;2022-10-16T20:16:09;14.30;99.90
58513;DHT22;44302;47.914;10.642;2022-10-16T20:18:35;14.30;99.90
58513;DHT22;44302;47.914;10.642;2022-10-16T20:21:07;14.30;99.90
58513;DHT22;44302;47.914;10.642;2022-10-16T20:23:32;14.30;99.90
58513;DHT22;44302;47.914;10.642;2022-10-16T20:26:00;14.30;99.90
58513;DHT22;44302;47.914;10.642;2022-10-16T20:28:25;14.30;99.90
58513;DHT22;44302;47.914;10.642;2022-10-16T20:30:51;14.30;99.90
58513;DHT22;44302;47.914;10.642;2022-10-16T20:33:17;14.20;99.90
58513;DHT22;44302;47.914;10.642;2022-10-16T20:35:46;14.20;99.90
58513;DHT22;44302;47.914;10.642;2022-10-16T20:38:13;14.30;99.90
58513;DHT22;44302;47.914;10.642;2022-10-16T20:40:41;14.30;99.90
58513;DHT22;44302;47.914;10.642;2022-10-16T20:43:11;14.30;99.90
58513;DHT22;44302;47.914;10.642;2022-10-16T20:45:37;14.30;99.90
58513;DHT22;44302;47.914;10.642;2022-10-16T20:48:03;14.30;99.90
58513;DHT22;44302;47.914;10.642;2022-10-16T20:50:30;14.20;99.90
58513;DHT22;44302;47.914;10.642;2022-10-16T20:52:57;14.20;99.90
58513;DHT22;44302;47.914;10.642;2022-10-16T20:55:23;14.10;99.90
58513;DHT22;44302;47.914;10.642;2022-10-16T20:57:49;14.10;99.90
58513;DHT22;44302;47.914;10.642;2022-10-16T21:00:14;14.10;99.90
58513;DHT22;44302;47.914;10.642;2022-10-16T21:02:40;14.10;99.90
58513;DHT22;44302;47.914;10.642;2022-10-16T21:05:06;14.10;99.90
58513;DHT22;44302;47.914;10.642;2022-10-16T21:07:32;14.00;99.90
58513;DHT22;44302;47.914;10.642;2022-10-16T21:09:58;14.00;99.90
58513;DHT22;44302;47.914;10.642;2022-10-16T21:12:24;14.10;99.90
58513;DHT22;44302;47.914;10.642;2022-10-16T21:14:50;14.00;99.90
58513;DHT22;44302;47.914;10.642;2022-10-16T21:17:16;14.10;99.90
58513;DHT22;44302;47.914;10.642;2022-10-16T21:19:42;14.10;99.90
58513;DHT22;44302;47.914;10.642;2022-10-16T21:22:08;14.10;99.90
58513;DHT22;44302;47.914;10.642;2022-10-16T21:24:35;14.10;99.90
58513;DHT22;44302;47.914;10.642;2022-10-16T21:27:02;14.10;99.90
58513;DHT22;44302;47.914;10.642;2022-10-16T21:29:28;14.10;99.90
58513;DHT22;44302;47.914;10.642;2022-10-16T21:31:53;14.00;99.90
58513;DHT22;44302;47.914;10.642;2022-10-16T21:34:19;14.00;99.90
58513;DHT22;44302;47.914;10.642;2022-10-16T21:36:45;14.00;99.90
58513;DHT22;44302;47.914;10.642;2022-10-16T21:39:12;14.00;99.90
58513;DHT22;44302;47.914;10.642;2022-10-16T21:41:40;14.00;99.90
58513;DHT22;44302;47.914;10.642;2022-10-16T21:44:06;14.00;99.90
58513;DHT22;44302;47.914;10.642;2022-10-16T21:46:34;14.00;99.90
58513;DHT22;44302;47.914;10.642;2022-10-16T21:49:02;14.00;99.90
58513;DHT22;44302;47.914;10.642;2022-10-16T21:51:32;13.90;99.90
58513;DHT22;44302;47.914;10.642;2022-10-16T21:53:59;13.90;99.90
58513;DHT22;44302;47.914;10.642;2022-10-16T21:56:25;13.90;99.90
58513;DHT22;44302;47.914;10.642;2022-10-16T21:58:51;13.80;99.90
58513;DHT22;44302;47.914;10.642;2022-10-16T22:01:20;13.80;99.90
58513;DHT22;44302;47.914;10.642;2022-10-16T22:03:47;13.80;99.90
58513;DHT22;44302;47.914;10.642;2022-10-16T22:06:14;13.80;99.90
58513;DHT22;44302;47.914;10.642;2022-10-16T22:08:40;13.80;99.90
58513;DHT22;44302;47.914;10.642;2022-10-16T22:11:10;13.80;99.90
58513;DHT22;44302;47.914;10.642;2022-10-16T22:13:36;13.80;99.90
58513;DHT22;44302;47.914;10.642;2022-10-16T22:16:03;13.80;99.90
58513;DHT22;44302;47.914;10.642;2022-10-16T22:18:29;13.70;99.90
58513;DHT22;44302;47.914;10.642;2022-10-16T22:20:55;13.70;99.90
58513;DHT22;44302;47.914;10.642;2022-10-16T22:23:21;13.70;99.90
58513;DHT22;44302;47.914;10.642;2022-10-16T22:25:47;13.70;99.90
58513;DHT22;44302;47.914;10.642;2022-10-16T22:28:12;13.60;99.90
58513;DHT22;44302;47.914;10.642;2022-10-16T22:30:39;13.50;99.90
